Time;durP1;ratioP1;P1;durP2;ratioP2;P2;SDS_P1;SDS_P2;PMS_P1;PMS_P2;Temp;Humidity;BMP_temperature;BMP_pressure;BME280_temperature;BME280_humidity;BME280_pressure;Samples;Min_cycle;Max_cycle;Signal;HPM_P1;HPM_P2
2023/12/07 00:00:16;;;;;;;16.73;11.80;;;5.00;99.90;;;;;;6301326;22;20034;-70
2023/12/07 00:03:02;;;;;;;18.02;12.60;;;5.00;99.90;;;;;;6280191;22;20145;-75
2023/12/07 00:05:48;;;;;;;18.95;12.75;;;5.00;99.90;;;;;;6302958;22;20524;-77
2023/12/07 00:08:34;;;;;;;20.13;13.13;;;5.00;99.90;;;;;;6301881;22;20007;-75
2023/12/07 00:11:23;;;;;;;17.58;12.25;;;4.90;99.90;;;;;;6278442;22;20086;-76
2023/12/07 00:14:08;;;;;;;17.15;12.30;;;4.90;99.90;;;;;;6303119;22;20011;-71
2023/12/07 00:16:54;;;;;;;19.25;13.18;;;4.90;99.90;;;;;;6277142;22;20007;-70
2023/12/07 00:19:40;;;;;;;18.13;13.25;;;5.00;99.90;;;;;;6298379;22;20022;-72
2023/12/07 00:22:28;;;;;;;17.95;12.85;;;5.00;99.90;;;;;;6299064;22;20003;-70
2023/12/07 00:25:14;;;;;;;18.13;13.25;;;5.00;99.90;;;;;;6277557;22;20828;-70
2023/12/07 00:28:00;;;;;;;16.83;11.40;;;5.00;99.90;;;;;;6297706;22;20085;-70
2023/12/07 00:30:46;;;;;;;19.40;12.50;;;5.00;99.90;;;;;;6279642;22;20096;-69
2023/12/07 00:33:32;;;;;;;17.80;12.93;;;5.00;99.90;;;;;;6278327;22;20094;-70
2023/12/07 00:36:18;;;;;;;19.52;12.88;;;5.00;99.90;;;;;;6301151;22;20042;-70
2023/12/07 00:39:04;;;;;;;17.80;13.23;;;5.00;99.90;;;;;;6299727;22;20049;-70
2023/12/07 00:41:50;;;;;;;19.35;12.65;;;5.00;99.90;;;;;;6278761;22;20559;-70
2023/12/07 00:44:41;;;;;;;17.65;12.30;;;5.00;99.90;;;;;;6301817;22;20483;-71
2023/12/07 00:47:26;;;;;;;17.38;12.40;;;5.00;99.90;;;;;;6302743;22;20010;-70
2023/12/07 00:50:16;;;;;;;18.92;13.05;;;5.00;99.90;;;;;;6301317;22;20007;-70
2023/12/07 00:53:02;;;;;;;18.58;13.05;;;4.90;99.90;;;;;;6300135;22;20011;-71
2023/12/07 00:55:48;;;;;;;18.92;12.95;;;4.80;99.90;;;;;;6301728;22;20015;-69
2023/12/07 00:58:34;;;;;;;20.83;14.18;;;4.90;99.90;;;;;;6278300;22;20153;-71
2023/12/07 01:01:20;;;;;;;18.30;13.60;;;4.90;99.90;;;;;;6297832;22;20369;-71
2023/12/07 01:04:06;;;;;;;18.15;12.30;;;4.90;99.90;;;;;;6299708;22;20011;-70
2023/12/07 01:06:52;;;;;;;18.25;13.02;;;4.90;99.90;;;;;;6276940;22;20017;-71
2023/12/07 01:09:38;;;;;;;19.58;13.40;;;4.80;99.90;;;;;;6280243;22;20068;-70
2023/12/07 01:12:24;;;;;;;17.08;11.95;;;4.80;99.90;;;;;;6277715;22;20269;-70
2023/12/07 01:15:10;;;;;;;19.23;12.32;;;4.80;99.90;;;;;;6301041;22;20054;-71
2023/12/07 01:17:56;;;;;;;15.02;11.40;;;4.80;99.90;;;;;;6277657;22;20061;-71
2023/12/07 01:20:42;;;;;;;19.38;12.45;;;4.80;99.90;;;;;;6278717;22;20011;-71
2023/12/07 01:23:28;;;;;;;19.20;11.75;;;4.80;99.90;;;;;;6276096;22;20085;-71
2023/12/07 01:26:14;;;;;;;18.88;12.98;;;4.80;99.90;;;;;;6268493;22;20169;-71
2023/12/07 01:29:00;;;;;;;18.67;13.23;;;4.90;99.90;;;;;;6270356;22;20008;-71
2023/12/07 01:31:46;;;;;;;19.80;12.48;;;4.80;99.90;;;;;;6270511;22;20010;-71
2023/12/07 01:34:35;;;;;;;16.70;11.75;;;4.80;99.90;;;;;;6271032;22;20040;-71
2023/12/07 01:37:21;;;;;;;18.80;12.73;;;4.80;99.90;;;;;;6271891;22;20363;-71
2023/12/07 01:40:10;;;;;;;17.83;11.75;;;4.80;99.90;;;;;;6250007;22;20026;-71
2023/12/07 01:42:56;;;;;;;17.70;12.63;;;4.80;99.90;;;;;;6271383;22;20451;-71
2023/12/07 01:45:42;;;;;;;18.05;12.23;;;4.90;99.90;;;;;;6271733;22;20087;-69
2023/12/07 01:48:29;;;;;;;15.93;11.43;;;4.80;99.90;;;;;;6271704;22;20012;-69
2023/12/07 01:51:17;;;;;;;17.02;12.65;;;4.90;99.90;;;;;;6271642;22;20003;-69
2023/12/07 01:54:03;;;;;;;16.05;10.70;;;4.90;99.90;;;;;;6271571;22;20042;-69
2023/12/07 01:56:51;;;;;;;17.88;12.43;;;4.90;99.90;;;;;;6272011;22;20010;-74
2023/12/07 01:59:37;;;;;;;18.15;10.95;;;4.90;99.90;;;;;;6248412;22;20012;-74
2023/12/07 02:02:23;;;;;;;15.77;11.68;;;4.90;99.90;;;;;;6249767;22;20423;-74
2023/12/07 02:05:09;;;;;;;17.60;11.77;;;5.00;99.90;;;;;;6250197;22;20090;-74
2023/12/07 02:07:55;;;;;;;17.08;11.95;;;5.00;99.90;;;;;;6271249;22;20010;-74
2023/12/07 02:10:41;;;;;;;16.85;11.38;;;5.00;99.90;;;;;;6271458;22;20471;-74
2023/12/07 02:13:27;;;;;;;16.02;11.77;;;5.00;99.90;;;;;;6270969;22;20042;-74
2023/12/07 02:16:27;;;;;;;15.68;11.10;;;4.90;99.90;;;;;;6272472;22;20046;-74
2023/12/07 02:19:44;;;;;;;16.92;11.88;;;4.90;99.90;;;;;;6249531;22;20019;-73
2023/12/07 02:22:42;;;;;;;16.45;11.25;;;4.90;99.90;;;;;;6269775;22;20474;-74
2023/12/07 02:25:48;;;;;;;15.20;11.50;;;4.90;99.90;;;;;;6258603;22;20037;-74
2023/12/07 02:28:34;;;;;;;15.80;10.73;;;4.90;99.90;;;;;;6271985;22;20018;-74
2023/12/07 02:31:20;;;;;;;17.02;11.45;;;4.90;99.90;;;;;;6270117;22;20018;-77
2023/12/07 02:34:06;;;;;;;18.90;11.40;;;4.90;99.90;;;;;;6271319;22;20016;-74
2023/12/07 02:36:53;;;;;;;16.33;12.15;;;5.00;99.90;;;;;;6270054;22;20011;-69
2023/12/07 02:39:39;;;;;;;18.15;11.52;;;4.90;99.90;;;;;;6268429;22;20501;-70
2023/12/07 02:42:26;;;;;;;16.42;10.55;;;5.00;99.90;;;;;;6249095;22;20070;-69
2023/12/07 02:45:12;;;;;;;15.55;11.88;;;5.00;99.90;;;;;;6269281;22;20090;-69
2023/12/07 02:47:58;;;;;;;17.02;12.77;;;5.00;99.90;;;;;;6270007;22;20471;-70
2023/12/07 02:50:44;;;;;;;16.75;12.05;;;5.00;99.90;;;;;;6248340;22;20070;-69
2023/12/07 02:53:31;;;;;;;15.73;10.77;;;5.00;99.90;;;;;;6270719;22;20284;-74
2023/12/07 02:56:17;;;;;;;17.23;12.05;;;5.00;99.90;;;;;;6271429;22;20008;-76
2023/12/07 02:59:03;;;;;;;18.48;11.93;;;5.00;99.90;;;;;;6270368;22;20020;-72
2023/12/07 03:01:50;;;;;;;18.73;11.75;;;5.00;99.90;;;;;;6270236;22;20008;-72
2023/12/07 03:04:36;;;;;;;18.75;10.15;;;5.00;99.90;;;;;;6270571;22;20008;-73
2023/12/07 03:07:22;;;;;;;16.50;11.70;;;5.00;99.90;;;;;;6270632;22;20008;-73
2023/12/07 03:10:08;;;;;;;16.92;12.80;;;5.00;99.90;;;;;;6270201;22;20169;-74
2023/12/07 03:12:54;;;;;;;17.20;11.68;;;5.00;99.90;;;;;;6247887;22;20011;-73
2023/12/07 03:15:40;;;;;;;16.00;11.55;;;5.00;99.90;;;;;;6271865;22;20050;-74
2023/12/07 03:18:26;;;;;;;16.88;11.25;;;5.00;99.90;;;;;;6271881;22;20008;-74
2023/12/07 03:21:12;;;;;;;16.77;11.85;;;5.00;99.90;;;;;;6272710;22;20019;-70
2023/12/07 03:23:58;;;;;;;16.63;11.32;;;5.00;99.90;;;;;;6269724;22;20471;-69
2023/12/07 03:26:44;;;;;;;16.05;11.88;;;5.00;99.90;;;;;;6300693;22;20094;-70
2023/12/07 03:29:31;;;;;;;16.40;12.60;;;5.00;99.90;;;;;;6300099;22;20008;-69
2023/12/07 03:32:17;;;;;;;16.40;11.90;;;5.10;99.90;;;;;;6302437;22;20390;-70
2023/12/07 03:35:03;;;;;;;19.92;13.05;;;5.00;99.90;;;;;;6301332;22;20513;-70
2023/12/07 03:37:49;;;;;;;18.00;11.90;;;5.10;99.90;;;;;;6300767;22;20015;-70
2023/12/07 03:40:35;;;;;;;18.75;12.88;;;5.10;99.90;;;;;;6299546;22;20106;-70
2023/12/07 03:43:21;;;;;;;17.17;12.30;;;5.10;99.90;;;;;;6301734;22;20062;-69
2023/12/07 03:46:08;;;;;;;18.25;11.93;;;5.10;99.90;;;;;;6300113;22;20011;-70
2023/12/07 03:48:53;;;;;;;17.77;11.98;;;5.10;99.90;;;;;;6301974;22;20008;-76
2023/12/07 03:51:40;;;;;;;17.83;12.27;;;5.10;99.90;;;;;;6301891;22;20007;-77
2023/12/07 03:54:26;;;;;;;17.40;12.18;;;5.10;99.90;;;;;;6302479;22;20014;-77
2023/12/07 03:57:12;;;;;;;18.85;12.90;;;5.10;99.90;;;;;;6300807;22;20011;-76
2023/12/07 03:59:58;;;;;;;18.80;11.90;;;5.10;99.90;;;;;;6300336;22;20068;-77
2023/12/07 04:02:44;;;;;;;17.75;12.40;;;5.10;99.90;;;;;;6278309;22;20004;-70
2023/12/07 04:05:29;;;;;;;18.95;12.00;;;5.10;99.90;;;;;;6302078;22;20411;-70
2023/12/07 04:08:16;;;;;;;18.27;12.52;;;5.10;99.90;;;;;;6276944;22;20158;-69
2023/12/07 04:11:02;;;;;;;22.38;14.45;;;5.10;99.90;;;;;;6277300;22;20026;-69
2023/12/07 04:13:48;;;;;;;17.95;12.85;;;5.20;99.90;;;;;;6301221;22;20000;-70
2023/12/07 04:16:34;;;;;;;21.08;13.68;;;5.20;99.90;;;;;;6300438;22;20015;-69
2023/12/07 04:19:19;;;;;;;20.20;13.10;;;5.10;99.90;;;;;;6278411;22;20015;-69
2023/12/07 04:22:05;;;;;;;19.38;13.73;;;5.10;99.90;;;;;;6277576;22;20098;-69
2023/12/07 04:24:51;;;;;;;21.42;14.20;;;5.10;99.90;;;;;;6301706;22;20466;-69
2023/12/07 04:27:37;;;;;;;21.50;13.82;;;5.10;99.90;;;;;;6300339;22;20030;-69
2023/12/07 04:30:23;;;;;;;23.17;15.57;;;5.10;99.90;;;;;;6299369;22;20210;-70
2023/12/07 04:33:09;;;;;;;24.20;15.32;;;5.10;99.90;;;;;;6301392;22;20117;-69
2023/12/07 04:35:55;;;;;;;25.15;15.77;;;5.10;99.90;;;;;;6301577;22;20011;-69
2023/12/07 04:38:41;;;;;;;23.48;15.35;;;5.10;99.90;;;;;;6299953;22;20457;-69
2023/12/07 04:41:27;;;;;;;23.27;14.73;;;5.10;99.90;;;;;;6300078;22;20007;-71
2023/12/07 04:44:13;;;;;;;26.85;16.85;;;5.10;99.90;;;;;;6299234;22;20007;-70
2023/12/07 04:46:59;;;;;;;23.55;15.02;;;5.10;99.90;;;;;;6301162;22;20015;-70
2023/12/07 04:49:45;;;;;;;24.30;14.73;;;5.10;99.90;;;;;;6301892;22;20511;-70
2023/12/07 04:52:31;;;;;;;26.08;15.70;;;5.10;99.90;;;;;;6278109;22;20018;-70
2023/12/07 04:55:17;;;;;;;24.35;15.88;;;5.10;99.90;;;;;;6277997;22;20474;-69
2023/12/07 04:58:02;;;;;;;25.80;17.08;;;5.10;99.90;;;;;;6299874;22;20008;-70
2023/12/07 05:00:48;;;;;;;26.92;16.48;;;5.20;99.90;;;;;;6277349;22;20098;-70
2023/12/07 05:03:34;;;;;;;25.77;15.38;;;5.10;99.90;;;;;;6300367;22;20509;-70
2023/12/07 05:06:20;;;;;;;22.27;15.00;;;5.10;99.90;;;;;;6278649;22;20042;-70
2023/12/07 05:09:09;;;;;;;25.35;16.02;;;5.10;99.90;;;;;;6300336;22;20019;-71
2023/12/07 05:11:55;;;;;;;26.55;16.35;;;5.10;99.90;;;;;;6299753;22;20011;-70
2023/12/07 05:14:41;;;;;;;25.85;16.27;;;5.10;99.90;;;;;;6300153;22;20086;-70
2023/12/07 05:17:27;;;;;;;23.20;15.13;;;5.20;99.90;;;;;;6299764;22;20173;-70
2023/12/07 05:20:12;;;;;;;23.85;14.70;;;5.20;99.90;;;;;;6301575;22;20505;-70
2023/12/07 05:22:58;;;;;;;26.17;15.70;;;5.20;99.90;;;;;;6299687;22;20011;-69
2023/12/07 05:25:44;;;;;;;28.05;15.40;;;5.20;99.90;;;;;;6300967;22;20647;-77
2023/12/07 05:28:30;;;;;;;22.23;13.52;;;5.20;99.90;;;;;;6299872;22;20069;-73
2023/12/07 05:31:17;;;;;;;27.45;17.27;;;5.20;99.90;;;;;;6299516;22;20336;-74
2023/12/07 05:34:03;;;;;;;25.38;15.38;;;5.20;99.90;;;;;;6278039;22;20004;-76
2023/12/07 05:36:49;;;;;;;24.48;14.43;;;5.20;99.90;;;;;;6299676;22;20434;-73
2023/12/07 05:39:35;;;;;;;24.88;14.70;;;5.10;99.90;;;;;;6300061;22;20098;-73
2023/12/07 05:42:24;;;;;;;26.75;15.35;;;5.20;99.90;;;;;;6299325;22;20378;-75
2023/12/07 05:45:10;;;;;;;21.75;14.18;;;5.10;99.90;;;;;;6299153;22;20022;-61
2023/12/07 05:47:56;;;;;;;24.75;15.30;;;5.10;99.90;;;;;;6300599;22;20458;-62
2023/12/07 05:50:42;;;;;;;26.65;15.93;;;5.10;99.90;;;;;;6302281;22;20082;-63
2023/12/07 05:53:28;;;;;;;25.33;15.55;;;5.10;99.90;;;;;;6299719;22;20018;-62
2023/12/07 05:56:21;;;;;;;27.83;15.75;;;5.10;99.90;;;;;;6299841;22;20371;-71
2023/12/07 05:59:06;;;;;;;26.08;16.48;;;5.10;99.90;;;;;;6297886;22;20451;-70
2023/12/07 06:01:53;;;;;;;27.95;16.20;;;5.10;99.90;;;;;;6296864;22;20008;-70
2023/12/07 06:04:39;;;;;;;26.85;15.70;;;5.10;99.90;;;;;;6301081;22;20018;-71
2023/12/07 06:07:25;;;;;;;26.88;17.02;;;5.10;99.90;;;;;;6300523;22;20007;-70
2023/12/07 06:10:11;;;;;;;25.35;15.10;;;5.10;99.90;;;;;;6298312;22;20011;-70
2023/12/07 06:13:00;;;;;;;26.40;16.10;;;5.10;99.90;;;;;;6297349;22;20044;-63
2023/12/07 06:15:46;;;;;;;25.33;15.90;;;5.10;99.90;;;;;;6299645;22;20463;-64
2023/12/07 06:18:32;;;;;;;26.63;15.35;;;5.10;99.90;;;;;;6300210;22;20007;-63
2023/12/07 06:21:18;;;;;;;26.48;15.90;;;5.10;99.90;;;;;;6300026;22;20050;-63
2023/12/07 06:24:04;;;;;;;24.58;15.45;;;5.10;99.90;;;;;;6299985;22;20015;-64
2023/12/07 06:26:51;;;;;;;28.08;16.50;;;5.10;99.90;;;;;;6298790;22;20379;-64
2023/12/07 06:29:37;;;;;;;25.55;15.68;;;5.10;99.90;;;;;;6302131;22;20007;-62
2023/12/07 06:32:23;;;;;;;26.65;15.25;;;5.10;99.90;;;;;;6301422;22;20560;-63
2023/12/07 06:35:12;;;;;;;26.40;16.40;;;5.10;99.90;;;;;;6302373;22;20011;-63
2023/12/07 06:37:58;;;;;;;27.75;17.55;;;5.20;99.90;;;;;;6301895;22;20379;-64
2023/12/07 06:40:44;;;;;;;27.15;17.58;;;5.10;99.90;;;;;;6302766;22;20026;-64
2023/12/07 06:43:30;;;;;;;27.55;16.13;;;5.10;99.90;;;;;;6301244;22;20003;-62
2023/12/07 06:46:16;;;;;;;28.83;16.52;;;5.10;99.90;;;;;;6300159;22;20053;-63
2023/12/07 06:49:02;;;;;;;28.05;17.35;;;5.10;99.90;;;;;;6301524;22;20003;-62
2023/12/07 06:51:48;;;;;;;25.95;14.82;;;5.10;99.90;;;;;;6301800;22;20090;-73
2023/12/07 06:54:34;;;;;;;28.88;17.58;;;5.10;99.90;;;;;;6301220;22;20007;-70
2023/12/07 06:57:21;;;;;;;23.23;14.70;;;5.10;99.90;;;;;;6301345;22;20003;-72
2023/12/07 07:00:10;;;;;;;31.48;17.45;;;5.10;99.90;;;;;;6301582;22;20015;-71
2023/12/07 07:02:56;;;;;;;24.70;16.70;;;5.10;99.90;;;;;;6300853;22;20064;-70
2023/12/07 07:05:42;;;;;;;27.27;16.08;;;5.10;99.90;;;;;;6280401;22;20018;-71
2023/12/07 07:08:28;;;;;;;25.08;14.80;;;5.10;99.90;;;;;;6302532;22;20065;-63
2023/12/07 07:11:14;;;;;;;24.67;14.95;;;5.10;99.90;;;;;;6300434;22;20030;-63
2023/12/07 07:14:01;;;;;;;24.92;14.95;;;5.10;99.90;;;;;;6279397;22;20458;-63
2023/12/07 07:16:47;;;;;;;27.08;16.95;;;5.20;99.90;;;;;;6278972;22;20018;-62
2023/12/07 07:19:33;;;;;;;25.27;14.30;;;5.10;99.90;;;;;;6301499;22;20045;-63
2023/12/07 07:22:19;;;;;;;24.95;14.20;;;5.10;99.90;;;;;;6301772;22;20069;-71
2023/12/07 07:25:06;;;;;;;28.77;16.17;;;5.20;99.90;;;;;;6300218;22;20023;-72
2023/12/07 07:27:53;;;;;;;25.35;15.35;;;5.20;99.90;;;;;;6301396;22;20042;-71
2023/12/07 07:30:39;;;;;;;27.75;14.82;;;5.20;99.90;;;;;;6302648;22;20091;-73
2023/12/07 07:33:25;;;;;;;26.52;15.70;;;5.20;99.90;;;;;;6301418;22;20456;-71
2023/12/07 07:36:12;;;;;;;25.40;14.20;;;5.20;99.90;;;;;;6302044;22;20098;-71
2023/12/07 07:38:58;;;;;;;27.40;17.15;;;5.20;99.90;;;;;;6300835;22;20023;-71
2023/12/07 07:41:44;;;;;;;25.08;15.63;;;5.20;99.90;;;;;;6301111;22;20142;-76
2023/12/07 07:44:30;;;;;;;28.35;15.80;;;5.20;99.90;;;;;;6300499;22;20522;-69
2023/12/07 07:47:17;;;;;;;27.20;15.80;;;5.20;99.90;;;;;;6301383;22;20089;-68
2023/12/07 07:50:04;;;;;;;23.95;15.35;;;5.20;99.90;;;;;;6302188;22;20015;-69
2023/12/07 07:52:50;;;;;;;25.80;16.35;;;5.30;99.90;;;;;;6297512;22;20147;-69
2023/12/07 07:55:36;;;;;;;26.83;15.80;;;5.30;99.90;;;;;;6301450;22;20102;-68
2023/12/07 07:58:22;;;;;;;25.63;14.98;;;5.30;99.90;;;;;;6300307;22;20003;-69
2023/12/07 08:01:08;;;;;;;24.75;14.93;;;5.30;99.90;;;;;;6297605;22;20015;-69
2023/12/07 08:03:54;;;;;;;23.67;14.23;;;5.30;99.90;;;;;;6298788;22;20007;-69
2023/12/07 08:06:40;;;;;;;26.55;13.75;;;5.40;99.90;;;;;;6300683;22;20096;-69
2023/12/07 08:09:26;;;;;;;27.42;16.00;;;5.30;99.90;;;;;;6300623;22;20497;-69
2023/12/07 08:12:12;;;;;;;24.58;14.73;;;5.40;99.90;;;;;;6299146;22;20015;-69
2023/12/07 08:14:58;;;;;;;25.25;14.98;;;5.40;99.90;;;;;;6300372;22;20011;-69
2023/12/07 08:17:44;;;;;;;25.20;14.70;;;5.40;99.90;;;;;;6300128;22;20090;-69
2023/12/07 08:20:30;;;;;;;23.33;14.35;;;5.40;99.90;;;;;;6298469;22;20120;-69
2023/12/07 08:23:16;;;;;;;23.33;15.60;;;5.50;99.90;;;;;;6299896;22;20018;-68
2023/12/07 08:32:49;;;;;;;25.20;14.70;;;5.50;99.90;;;;;;6298136;22;20022;-69
2023/12/07 08:35:35;;;;;;;27.80;17.60;;;5.50;99.90;;;;;;6299915;22;20053;-64
2023/12/07 08:38:22;;;;;;;25.65;15.52;;;5.50;99.90;;;;;;6300282;22;20034;-64
2023/12/07 08:41:08;;;;;;;26.88;16.05;;;5.50;99.90;;;;;;6297024;22;20047;-63
2023/12/07 08:43:54;;;;;;;22.60;14.25;;;5.50;99.90;;;;;;6299069;22;20056;-63
2023/12/07 08:46:43;;;;;;;30.30;17.98;;;5.50;99.90;;;;;;6297679;22;20011;-69
2023/12/07 08:49:29;;;;;;;27.55;15.60;;;5.50;99.90;;;;;;6299690;22;20014;-69
2023/12/07 08:52:15;;;;;;;26.40;16.63;;;5.50;99.90;;;;;;6295096;22;20015;-69
2023/12/07 08:55:01;;;;;;;26.27;16.85;;;5.50;99.90;;;;;;6295906;22;20061;-67
2023/12/07 08:57:47;;;;;;;24.92;14.65;;;5.50;99.90;;;;;;6297705;22;20006;-68
2023/12/07 09:00:33;;;;;;;24.50;15.18;;;5.50;99.90;;;;;;6298326;22;20415;-70
2023/12/07 09:03:19;;;;;;;22.33;14.98;;;5.60;99.90;;;;;;6299427;22;20536;-71
2023/12/07 09:06:06;;;;;;;25.08;14.95;;;5.60;99.90;;;;;;6299506;22;20406;-71
2023/12/07 09:08:52;;;;;;;22.48;14.52;;;5.60;99.90;;;;;;6298182;22;20011;-70
2023/12/07 09:11:38;;;;;;;23.23;14.20;;;5.60;99.90;;;;;;6275252;22;20370;-67
2023/12/07 09:14:26;;;;;;;23.17;14.55;;;5.60;99.90;;;;;;6298716;22;20015;-76
2023/12/07 09:17:12;;;;;;;22.05;14.25;;;5.60;99.90;;;;;;6298334;22;20011;-76
2023/12/07 09:19:58;;;;;;;25.27;15.25;;;5.70;99.90;;;;;;6301001;22;20011;-77
2023/12/07 09:22:45;;;;;;;24.83;15.20;;;5.70;99.90;;;;;;6298506;22;20003;-73
2023/12/07 09:25:31;;;;;;;23.65;14.85;;;5.70;99.90;;;;;;6299970;22;20011;-77
2023/12/07 09:28:17;;;;;;;30.75;15.00;;;5.70;99.90;;;;;;6300085;22;20080;-74
2023/12/07 09:31:03;;;;;;;25.38;16.20;;;5.70;99.90;;;;;;6300889;22;20014;-78
2023/12/07 09:33:50;;;;;;;25.85;13.50;;;5.70;99.90;;;;;;6300169;22;20494;-77
2023/12/07 09:36:36;;;;;;;25.88;14.25;;;5.80;99.90;;;;;;6300241;22;20468;-76
2023/12/07 09:39:22;;;;;;;25.10;14.82;;;5.80;99.90;;;;;;6299231;22;20103;-77
2023/12/07 09:42:08;;;;;;;25.42;15.90;;;5.80;99.90;;;;;;6300558;22;20056;-76
2023/12/07 09:44:54;;;;;;;25.15;15.25;;;5.80;99.90;;;;;;6300409;22;20038;-76
2023/12/07 09:47:41;;;;;;;23.38;13.93;;;5.80;99.90;;;;;;6299826;22;20004;-76
2023/12/07 09:50:27;;;;;;;24.17;14.15;;;5.80;99.90;;;;;;6300001;22;20351;-61
2023/12/07 09:53:13;;;;;;;23.65;14.45;;;5.90;99.90;;;;;;6297202;22;20014;-62
2023/12/07 09:55:59;;;;;;;22.58;13.60;;;5.90;99.90;;;;;;6301086;22;20038;-61
2023/12/07 09:58:45;;;;;;;21.85;13.27;;;5.90;99.90;;;;;;6301862;22;20046;-61
2023/12/07 10:01:31;;;;;;;21.10;12.80;;;5.90;99.90;;;;;;6301857;22;20004;-61
2023/12/07 10:04:25;;;;;;;18.05;11.70;;;5.90;99.90;;;;;;6279417;22;20553;-62
2023/12/07 10:07:11;;;;;;;18.17;11.90;;;5.90;99.90;;;;;;6301766;22;20015;-61
2023/12/07 10:09:57;;;;;;;20.90;11.63;;;5.90;99.90;;;;;;6299795;22;20050;-62
2023/12/07 10:12:58;;;;;;;19.30;12.60;;;5.90;99.90;;;;;;6301857;22;20011;-61
2023/12/07 10:15:44;;;;;;;21.50;12.75;;;5.90;99.90;;;;;;6302948;22;20362;-63
2023/12/07 10:18:30;;;;;;;21.00;13.32;;;5.90;99.90;;;;;;6302507;22;20018;-63
2023/12/07 10:21:16;;;;;;;20.90;13.15;;;5.90;99.90;;;;;;6300885;22;20030;-63
2023/12/07 10:24:03;;;;;;;21.30;13.07;;;5.90;99.90;;;;;;6300653;22;20090;-62
2023/12/07 10:26:50;;;;;;;24.50;15.82;;;5.80;99.90;;;;;;6298652;22;20621;-64
2023/12/07 10:29:37;;;;;;;24.40;14.57;;;5.80;99.90;;;;;;6301603;22;20003;-63
2023/12/07 10:32:23;;;;;;;23.42;13.95;;;5.80;99.90;;;;;;6301695;22;20019;-64
2023/12/07 10:35:10;;;;;;;22.92;14.60;;;5.70;99.90;;;;;;6301831;22;20099;-63
2023/12/07 10:37:56;;;;;;;27.05;15.43;;;5.80;99.90;;;;;;6302839;22;20008;-64
2023/12/07 10:40:42;;;;;;;30.27;17.48;;;5.80;99.90;;;;;;6302459;22;20023;-65
2023/12/07 10:43:28;;;;;;;30.83;18.23;;;5.80;99.90;;;;;;6303881;22;20060;-66
2023/12/07 10:46:18;;;;;;;23.02;15.05;;;5.80;99.90;;;;;;6303093;22;20339;-77
2023/12/07 10:49:07;;;;;;;31.20;17.90;;;5.80;99.90;;;;;;6299691;22;20008;-76
2023/12/07 10:52:03;;;;;;;27.48;17.30;;;5.70;99.90;;;;;;6301010;22;20011;-81
2023/12/07 10:54:57;;;;;;;26.63;16.73;;;5.70;99.90;;;;;;6302098;22;20034;-81
2023/12/07 10:57:44;;;;;;;27.60;16.48;;;5.70;99.90;;;;;;6297614;22;20011;-82
2023/12/07 11:00:30;;;;;;;30.10;16.40;;;5.70;99.90;;;;;;6300737;22;20030;-80
2023/12/07 11:03:17;;;;;;;25.33;14.77;;;5.80;99.90;;;;;;6300628;22;20069;-83
2023/12/07 11:06:05;;;;;;;23.42;15.00;;;5.80;99.90;;;;;;6277785;22;20094;-82
2023/12/07 11:08:56;;;;;;;27.60;15.68;;;5.80;99.90;;;;;;6300733;22;20007;-82
2023/12/07 11:11:57;;;;;;;24.38;15.45;;;5.90;99.90;;;;;;6279244;22;20022;-82
2023/12/07 11:14:43;;;;;;;21.75;13.13;;;5.90;99.90;;;;;;6297949;22;20038;-64
2023/12/07 11:17:29;;;;;;;25.65;14.40;;;5.90;99.90;;;;;;6277019;22;20138;-64
2023/12/07 11:20:20;;;;;;;23.25;14.73;;;6.00;99.90;;;;;;6301017;22;20016;-65
2023/12/07 11:23:10;;;;;;;22.85;13.82;;;6.00;99.90;;;;;;6276368;22;20090;-63
2023/12/07 11:36:58;;;;;;;23.17;12.85;;;6.00;99.90;;;;;;6299145;22;20027;-62
2023/12/07 11:39:49;;;;;;;20.35;13.98;;;6.10;99.90;;;;;;6302069;22;20023;-62
2023/12/07 11:42:35;;;;;;;23.45;14.43;;;6.10;99.90;;;;;;6301800;22;20405;-61
2023/12/07 11:45:42;;;;;;;22.77;14.40;;;6.10;99.90;;;;;;6301542;22;20019;-62
2023/12/07 11:48:28;;;;;;;21.63;13.35;;;6.10;99.90;;;;;;6279277;22;20098;-62
2023/12/07 11:51:15;;;;;;;26.40;13.65;;;6.00;99.90;;;;;;6302134;22;20011;-62
2023/12/07 11:54:01;;;;;;;21.83;13.10;;;6.10;99.90;;;;;;6298142;22;20160;-62
2023/12/07 11:56:55;;;;;;;20.35;12.93;;;6.10;99.90;;;;;;6299408;22;20110;-62
2023/12/07 11:59:43;;;;;;;23.55;14.02;;;6.10;99.90;;;;;;6297802;22;20017;-63
2023/12/07 12:02:33;;;;;;;25.40;15.43;;;6.10;99.90;;;;;;6301576;22;20003;-62
2023/12/07 12:05:19;;;;;;;23.10;14.25;;;6.10;99.90;;;;;;6284768;22;20014;-62
2023/12/07 12:08:06;;;;;;;23.35;14.18;;;6.10;99.90;;;;;;6270406;22;20066;-62
2023/12/07 12:10:57;;;;;;;24.85;15.57;;;6.00;99.90;;;;;;6265613;22;20015;-62
2023/12/07 12:13:47;;;;;;;22.90;14.82;;;6.10;99.90;;;;;;6267540;22;20093;-63
2023/12/07 12:16:33;;;;;;;24.50;14.93;;;6.00;99.90;;;;;;6271560;22;20161;-62
2023/12/07 12:19:20;;;;;;;24.58;14.43;;;6.00;99.90;;;;;;6266572;22;20024;-62
2023/12/07 12:22:06;;;;;;;25.50;16.08;;;6.10;99.90;;;;;;6269874;22;20011;-61
2023/12/07 12:24:52;;;;;;;26.05;15.68;;;6.00;99.90;;;;;;6268955;22;20023;-61
2023/12/07 12:27:38;;;;;;;25.67;15.80;;;6.00;99.90;;;;;;6271137;22;20106;-63
2023/12/07 12:30:24;;;;;;;31.20;15.82;;;6.00;99.90;;;;;;6268467;22;20349;-62
2023/12/07 12:33:12;;;;;;;24.13;15.98;;;6.00;99.90;;;;;;6267531;22;20034;-62
2023/12/07 12:36:07;;;;;;;28.92;15.50;;;6.00;99.90;;;;;;6268755;22;20445;-62
2023/12/07 12:38:53;;;;;;;26.77;16.38;;;6.00;99.90;;;;;;6300025;22;20022;-61
2023/12/07 12:41:39;;;;;;;28.65;16.77;;;6.00;99.90;;;;;;6300531;22;20049;-61
2023/12/07 12:44:26;;;;;;;25.90;16.73;;;6.00;99.90;;;;;;6301430;22;20445;-61
2023/12/07 12:47:13;;;;;;;28.17;18.38;;;6.00;99.90;;;;;;6299728;22;20003;-61
2023/12/07 12:50:00;;;;;;;28.05;16.38;;;6.00;99.90;;;;;;6297099;22;20045;-62
2023/12/07 12:52:47;;;;;;;31.10;18.35;;;6.10;99.90;;;;;;6301397;22;20007;-61
2023/12/07 12:55:38;;;;;;;28.33;18.27;;;6.00;99.90;;;;;;6300232;22;20007;-62
2023/12/07 12:58:24;;;;;;;28.55;18.50;;;6.00;99.90;;;;;;6300566;22;20017;-61
2023/12/07 13:01:10;;;;;;;28.98;18.27;;;6.00;99.90;;;;;;6301494;22;20341;-61
2023/12/07 13:03:57;;;;;;;30.55;19.60;;;6.00;99.90;;;;;;6297090;22;20008;-62
2023/12/07 13:06:44;;;;;;;29.65;19.92;;;6.00;99.90;;;;;;6298387;22;20149;-61
2023/12/07 13:09:30;;;;;;;32.88;19.75;;;6.00;99.90;;;;;;6298173;22;20007;-61
2023/12/07 13:12:16;;;;;;;32.45;19.55;;;6.00;99.90;;;;;;6301229;22;20036;-62
2023/12/07 13:15:02;;;;;;;32.88;19.98;;;6.00;99.90;;;;;;6299733;22;20286;-62
2023/12/07 13:17:48;;;;;;;34.67;22.42;;;6.00;99.90;;;;;;6301073;22;20073;-62
2023/12/07 13:20:38;;;;;;;37.65;22.52;;;6.00;99.90;;;;;;6300634;22;20077;-62
2023/12/07 13:23:24;;;;;;;33.97;21.02;;;6.10;99.90;;;;;;6300590;22;20030;-62
2023/12/07 13:26:10;;;;;;;32.17;19.50;;;6.00;99.90;;;;;;6299391;22;20341;-62
2023/12/07 13:28:57;;;;;;;30.15;19.67;;;6.10;99.90;;;;;;6300523;22;20324;-61
2023/12/07 13:31:43;;;;;;;31.20;20.13;;;6.00;99.90;;;;;;6299308;22;20011;-62
2023/12/07 13:34:29;;;;;;;32.67;19.83;;;6.00;99.90;;;;;;6299931;22;20014;-65
2023/12/07 13:37:15;;;;;;;32.53;19.50;;;6.00;99.90;;;;;;6300212;22;20026;-62
2023/12/07 13:40:03;;;;;;;32.92;19.92;;;6.00;99.90;;;;;;6299797;22;20015;-62
2023/12/07 13:42:49;;;;;;;32.38;19.77;;;6.10;99.90;;;;;;6275299;22;20060;-60
2023/12/07 13:45:35;;;;;;;35.10;21.02;;;6.10;99.90;;;;;;6299789;22;20022;-61
2023/12/07 13:48:21;;;;;;;34.63;20.85;;;6.10;99.90;;;;;;6297810;22;20035;-61
2023/12/07 13:51:07;;;;;;;33.88;19.80;;;6.10;99.90;;;;;;6300497;22;20291;-59
2023/12/07 13:53:55;;;;;;;34.65;21.35;;;6.10;99.90;;;;;;6298541;22;20440;-60
2023/12/07 13:56:41;;;;;;;35.33;21.55;;;6.10;99.90;;;;;;6275985;22;20173;-59
2023/12/07 13:59:27;;;;;;;33.88;20.98;;;6.10;99.90;;;;;;6300390;22;20428;-60
2023/12/07 14:02:13;;;;;;;40.50;23.48;;;6.10;99.90;;;;;;6300188;22;20046;-60
2023/12/07 14:04:59;;;;;;;37.75;23.15;;;6.00;99.90;;;;;;6297208;22;20021;-63
2023/12/07 14:07:45;;;;;;;38.42;24.45;;;6.00;99.90;;;;;;6295860;22;20049;-60
2023/12/07 14:10:31;;;;;;;43.05;23.95;;;6.00;99.90;;;;;;6300739;22;20090;-58
2023/12/07 14:13:17;;;;;;;42.90;23.92;;;6.00;99.90;;;;;;6298164;22;20345;-59
2023/12/07 14:16:04;;;;;;;46.15;23.88;;;6.00;99.90;;;;;;6301643;22;20015;-59
2023/12/07 14:18:50;;;;;;;45.97;23.90;;;6.00;99.90;;;;;;6297808;22;20467;-62
2023/12/07 14:21:36;;;;;;;51.13;25.73;;;6.00;99.90;;;;;;6297429;22;20093;-60
2023/12/07 14:24:23;;;;;;;42.88;24.70;;;6.00;99.90;;;;;;6301098;22;20068;-61
2023/12/07 14:27:09;;;;;;;41.83;25.63;;;6.00;99.90;;;;;;6301144;22;20069;-59
2023/12/07 14:29:55;;;;;;;51.63;25.42;;;6.00;99.90;;;;;;6300310;22;20633;-60
2023/12/07 14:32:43;;;;;;;44.65;25.90;;;6.00;99.90;;;;;;6301381;22;20012;-60